createdAt,value
2019-05-21T00:00:00.816Z,98.55
2019-05-21T00:01:00.861Z,98.75
2019-05-21T00:02:00.758Z,98.80
2019-05-21T00:03:00.771Z,98.65
2019-05-21T00:04:00.730Z,98.29
2019-05-21T00:05:00.719Z,98.19
2019-05-21T00:06:00.726Z,98.09
2019-05-21T00:07:00.727Z,99.05
2019-05-21T00:08:00.695Z,98.50
2019-05-21T00:09:00.673Z,98.70
2019-05-21T00:10:00.668Z,98.80
2019-05-21T00:11:00.687Z,98.80
2019-05-21T00:12:00.641Z,98.80
2019-05-21T00:13:00.635Z,98.90
2019-05-21T00:14:00.626Z,98.80
2019-05-21T00:15:00.656Z,98.39
2019-05-21T00:16:00.607Z,98.39
2019-05-21T00:17:00.590Z,98.29
2019-05-21T00:18:00.581Z,97.89
2019-05-21T00:19:00.564Z,97.69
2019-05-21T00:20:00.554Z,98.19
2019-05-21T00:21:00.569Z,97.89
2019-05-21T00:22:00.535Z,97.89
2019-05-21T00:23:00.527Z,97.58
2019-05-21T00:24:00.507Z,97.69
2019-05-21T00:25:00.583Z,98.09
2019-05-21T00:26:00.492Z,97.58
2019-05-21T00:27:00.475Z,97.79
2019-05-21T00:28:00.470Z,97.89
2019-05-21T00:29:00.488Z,97.49
2019-05-21T00:30:00.446Z,97.69
2019-05-21T00:31:00.432Z,97.89
2019-05-21T00:32:00.429Z,97.79
2019-05-21T00:33:00.418Z,97.49
2019-05-21T00:34:00.430Z,97.69
2019-05-21T00:35:00.402Z,97.89
2019-05-21T00:36:00.381Z,98.09
2019-05-21T00:37:00.450Z,97.99
2019-05-21T00:38:00.366Z,97.58
2019-05-21T00:39:00.436Z,97.89
2019-05-21T00:40:00.363Z,97.89
2019-05-21T00:41:00.325Z,97.69
2019-05-21T00:42:00.321Z,97.69
2019-05-21T00:43:00.307Z,97.79
2019-05-21T00:44:00.287Z,97.69
2019-05-21T00:45:00.319Z,97.58
2019-05-21T00:46:00.298Z,98.09
2019-05-21T00:47:00.298Z,97.73
2019-05-21T00:48:00.252Z,98.03
2019-05-21T00:49:00.236Z,97.69
2019-05-21T00:50:00.245Z,97.69
2019-05-21T00:51:00.207Z,97.58
2019-05-21T00:52:07.697Z,98.19
2019-05-21T00:53:01.233Z,97.99
2019-05-21T00:54:00.737Z,97.99
2019-05-21T00:55:00.176Z,97.69
2019-05-21T00:56:00.158Z,97.69
2019-05-21T00:57:00.142Z,97.58
2019-05-21T00:58:00.163Z,97.89
2019-05-21T00:59:00.136Z,97.58
2019-05-21T01:00:00.123Z,97.99
2019-05-21T01:01:00.110Z,97.89
2019-05-21T01:02:00.161Z,97.99
2019-05-21T01:03:00.094Z,98.09
2019-05-21T01:04:00.082Z,97.79
2019-05-21T01:05:01.603Z,98.29
2019-05-21T01:06:00.046Z,98.19
2019-05-21T01:07:00.041Z,98.44
2019-05-21T01:08:00.026Z,98.54
2019-05-21T01:09:00.058Z,98.34
2019-05-21T01:10:00.004Z,97.83
2019-05-21T01:10:59.988Z,98.14
2019-05-21T01:12:00.027Z,98.24
2019-05-21T01:12:59.985Z,98.03
2019-05-21T01:13:59.952Z,98.34
2019-05-21T01:14:59.945Z,98.03
2019-05-21T01:15:59.936Z,98.03
2019-05-21T01:16:59.924Z,97.94
2019-05-21T01:17:59.946Z,97.63
2019-05-21T01:18:59.984Z,97.94
2019-05-21T01:19:59.927Z,98.14
2019-05-21T01:20:59.876Z,97.94
2019-05-21T01:21:59.875Z,97.73
2019-05-21T01:22:59.856Z,97.63
2019-05-21T01:23:59.866Z,97.73
2019-05-21T01:24:59.950Z,97.33
2019-05-21T01:25:59.827Z,97.43
2019-05-21T01:26:59.809Z,96.92
2019-05-21T01:27:59.797Z,97.13
2019-05-21T01:28:59.793Z,97.53
2019-05-21T01:29:59.822Z,97.53
2019-05-21T01:30:59.763Z,97.33
2019-05-21T01:31:59.758Z,97.13
2019-05-21T01:32:59.757Z,97.23
2019-05-21T01:33:59.733Z,97.02
2019-05-21T01:35:14.623Z,97.43
2019-05-21T01:36:00.809Z,97.53
2019-05-21T01:36:59.697Z,97.83
2019-05-21T01:37:59.686Z,97.43
2019-05-21T01:38:59.685Z,97.73
2019-05-21T01:39:59.667Z,97.94
2019-05-21T01:40:59.664Z,97.43
2019-05-21T01:41:59.701Z,97.73
2019-05-21T01:43:03.061Z,97.67
2019-05-21T01:43:59.627Z,97.73
2019-05-21T01:44:59.610Z,97.67
2019-05-21T01:45:59.640Z,97.78
2019-05-21T01:46:59.601Z,97.73
2019-05-21T01:47:59.659Z,97.33
2019-05-21T01:48:59.609Z,97.38
2019-05-21T01:49:59.552Z,97.13
2019-05-21T01:50:59.548Z,97.27
2019-05-21T01:51:59.542Z,97.17
2019-05-21T01:52:59.631Z,96.82
2019-05-21T01:53:59.512Z,96.82
2019-05-21T01:54:59.503Z,96.46
2019-05-21T01:55:59.486Z,96.77
2019-05-21T01:56:59.497Z,96.72
2019-05-21T01:57:59.466Z,96.77
2019-05-21T01:58:59.536Z,97.13
2019-05-21T01:59:59.473Z,97.47
2019-05-21T02:00:59.433Z,97.33
2019-05-21T02:01:59.423Z,97.53
2019-05-21T02:02:59.414Z,97.33
2019-05-21T02:03:59.405Z,97.17
2019-05-21T02:04:59.439Z,97.17
2019-05-21T02:05:59.378Z,97.67
2019-05-21T02:06:59.363Z,97.47
2019-05-21T02:07:59.366Z,97.78
2019-05-21T02:08:59.343Z,97.67
2019-05-21T02:09:59.421Z,97.78
2019-05-21T02:10:59.322Z,97.27
2019-05-21T02:11:59.311Z,97.07
2019-05-21T02:12:59.306Z,97.38
2019-05-21T02:13:59.290Z,97.47
2019-05-21T02:14:59.281Z,97.52
2019-05-21T02:15:59.340Z,97.27
2019-05-21T02:16:59.259Z,97.47
2019-05-21T02:17:59.241Z,97.58
2019-05-21T02:18:59.278Z,97.58
2019-05-21T02:19:59.217Z,97.32
2019-05-21T02:20:59.314Z,97.22
2019-05-21T02:21:59.225Z,96.91
2019-05-21T02:22:59.190Z,96.81
2019-05-21T02:23:59.186Z,96.91
2019-05-21T02:24:59.169Z,96.91
2019-05-21T02:25:59.153Z,96.81
2019-05-21T02:26:59.180Z,96.81
2019-05-21T02:27:59.130Z,96.51
2019-05-21T02:28:59.123Z,96.91
2019-05-21T02:29:59.114Z,97.02
2019-05-21T02:30:59.155Z,96.61
2019-05-21T02:31:59.151Z,96.61
2019-05-21T02:32:59.074Z,96.51
2019-05-21T02:33:59.061Z,96.91
2019-05-21T02:34:59.058Z,96.81
2019-05-21T02:35:59.041Z,96.71
2019-05-21T02:36:59.053Z,96.61
2019-05-21T02:37:59.026Z,97.02
2019-05-21T02:38:59.024Z,96.81
2019-05-21T02:39:59.001Z,96.91
2019-05-21T02:40:58.999Z,96.91
2019-05-21T02:41:58.975Z,96.81
2019-05-21T02:42:58.997Z,97.02
2019-05-21T02:43:58.954Z,96.51
2019-05-21T02:44:58.951Z,96.81
2019-05-21T02:45:58.980Z,96.51
2019-05-21T02:46:58.967Z,96.51
2019-05-21T02:47:58.912Z,96.51
2019-05-21T02:48:58.901Z,96.81
2019-05-21T02:49:58.902Z,96.51
2019-05-21T02:50:58.881Z,96.51
2019-05-21T02:51:58.904Z,96.61
2019-05-21T02:52:58.871Z,96.61
2019-05-21T02:53:58.847Z,96.71
2019-05-21T02:54:58.829Z,96.41
2019-05-21T02:55:58.832Z,96.66
2019-05-21T02:56:58.814Z,95.94
2019-05-21T02:57:58.845Z,96.15
2019-05-21T02:58:58.864Z,96.15
2019-05-21T02:59:58.780Z,96.15
2019-05-21T03:00:58.771Z,96.04
2019-05-21T03:01:58.777Z,96.25
2019-05-21T03:02:58.748Z,96.35
2019-05-21T03:03:58.764Z,96.35
2019-05-21T03:04:58.718Z,96.35
2019-05-21T03:06:13.204Z,96.35
2019-05-21T03:06:59.696Z,96.66
2019-05-21T03:07:58.717Z,96.75
2019-05-21T03:08:58.673Z,96.55
2019-05-21T03:09:58.669Z,96.86
2019-05-21T03:10:58.659Z,96.86
2019-05-21T03:11:58.674Z,96.66
2019-05-21T03:12:58.666Z,96.86
2019-05-21T03:13:58.655Z,96.45
2019-05-21T03:14:58.640Z,96.45
2019-05-21T03:15:58.619Z,96.35
2019-05-21T03:16:58.596Z,96.45
2019-05-21T03:17:58.584Z,96.15
2019-05-21T03:18:58.655Z,96.15
2019-05-21T03:19:58.560Z,96.25
2019-05-21T03:20:58.553Z,96.45
2019-05-21T03:21:58.534Z,96.04
2019-05-21T03:22:58.521Z,96.04
2019-05-21T03:23:58.547Z,96.15
2019-05-21T03:25:02.178Z,96.15
2019-05-21T03:25:58.482Z,95.74
2019-05-21T03:26:58.473Z,95.79
2019-05-21T03:27:58.467Z,95.94
2019-05-21T03:28:58.520Z,95.89
2019-05-21T03:29:58.458Z,95.89
2019-05-21T03:30:58.431Z,96.25
2019-05-21T03:31:58.482Z,95.89
2019-05-21T03:32:58.455Z,95.74
2019-05-21T03:33:58.432Z,96.04
2019-05-21T03:34:58.404Z,96.09
2019-05-21T03:35:58.479Z,96.09
2019-05-21T03:36:58.369Z,95.99
2019-05-21T03:37:58.350Z,96.19
2019-05-21T03:38:58.341Z,96.19
2019-05-21T03:39:58.354Z,96.25
2019-05-21T03:40:58.366Z,95.74
2019-05-21T03:41:58.314Z,95.54
2019-05-21T03:42:58.299Z,95.34
2019-05-21T03:43:58.289Z,95.84
2019-05-21T03:45:00.728Z,95.23
2019-05-21T03:45:58.377Z,95.64
2019-05-21T03:46:58.249Z,95.34
2019-05-21T03:47:58.249Z,95.34
2019-05-21T03:48:58.229Z,95.64
2019-05-21T03:49:58.217Z,95.29
2019-05-21T03:50:58.292Z,95.43
2019-05-21T03:51:58.195Z,95.29
2019-05-21T03:52:58.226Z,95.29
2019-05-21T03:53:58.181Z,95.19
2019-05-21T03:55:02.681Z,95.09
2019-05-21T03:55:59.161Z,94.68
2019-05-21T03:56:58.138Z,93.87
2019-05-21T03:57:58.214Z,93.97
2019-05-21T03:58:58.125Z,94.18
2019-05-21T03:59:58.110Z,93.87
2019-05-21T04:00:58.104Z,93.42
2019-05-21T04:01:58.146Z,93.87
2019-05-21T04:02:58.138Z,93.42
2019-05-21T04:03:58.066Z,93.42
2019-05-21T04:04:58.062Z,93.73
2019-05-21T04:05:58.039Z,93.93
2019-05-21T04:06:58.036Z,93.52
2019-05-21T04:07:58.106Z,94.03
2019-05-21T04:08:58.017Z,94.03
2019-05-21T04:09:58.003Z,93.07
2019-05-21T04:10:58.023Z,93.52
2019-05-21T04:11:57.977Z,92.82
2019-05-21T04:12:57.962Z,92.57
2019-05-21T04:13:57.953Z,91.66
2019-05-21T04:14:57.938Z,92.47
2019-05-21T04:15:57.935Z,92.16
2019-05-21T04:16:57.943Z,91.71
2019-05-21T04:17:57.906Z,91.20
2019-05-21T04:18:57.891Z,91.20
2019-05-21T04:19:57.899Z,91.20
2019-05-21T04:20:57.879Z,91.61
2019-05-21T04:21:57.874Z,90.80
2019-05-21T04:22:57.916Z,90.60
2019-05-21T04:23:57.842Z,90.30
2019-05-21T04:24:57.831Z,89.99
2019-05-21T04:25:57.832Z,89.45
2019-05-21T04:26:57.814Z,89.45
2019-05-21T04:27:57.824Z,89.61
2019-05-21T04:28:57.798Z,89.24
2019-05-21T04:29:57.776Z,89.20
2019-05-21T04:30:57.766Z,88.59
2019-05-21T04:31:57.763Z,87.88
2019-05-21T04:32:57.768Z,87.38
2019-05-21T04:33:57.740Z,87.68
2019-05-21T04:34:57.722Z,87.68
2019-05-21T04:35:57.711Z,87.54
2019-05-21T04:37:09.819Z,87.64
2019-05-21T04:37:58.712Z,87.04
2019-05-21T04:38:57.673Z,86.83
2019-05-21T04:39:57.691Z,86.29
2019-05-21T04:40:57.661Z,86.59
2019-05-21T04:41:57.645Z,86.08
2019-05-21T04:43:01.726Z,85.78
2019-05-21T04:43:57.627Z,86.19
2019-05-21T04:44:57.608Z,85.88
2019-05-21T04:45:57.599Z,85.54
2019-05-21T04:46:57.590Z,83.52
2019-05-21T04:47:57.617Z,83.12
2019-05-21T04:48:57.660Z,82.61
2019-05-21T04:49:57.568Z,82.31
2019-05-21T04:50:57.566Z,82.61
2019-05-21T04:51:57.535Z,82.71
2019-05-21T04:52:57.524Z,82.07
2019-05-21T04:53:57.511Z,82.07
2019-05-21T04:54:57.520Z,82.07
2019-05-21T04:55:57.488Z,82.17
2019-05-21T04:56:57.490Z,82.47
2019-05-21T04:57:57.464Z,81.52
2019-05-21T04:58:57.451Z,81.32
2019-05-21T04:59:57.486Z,80.92
2019-05-21T05:00:57.452Z,81.22
2019-05-21T05:01:57.426Z,80.82
2019-05-21T05:02:57.425Z,80.27
2019-05-21T05:03:57.419Z,80.68
2019-05-21T05:04:57.390Z,79.47
2019-05-21T05:05:57.409Z,79.57
2019-05-21T05:06:57.367Z,79.67
2019-05-21T05:07:57.357Z,80.18
2019-05-21T05:08:57.340Z,78.72
2019-05-21T05:09:57.340Z,78.92
2019-05-21T05:10:57.322Z,78.72
2019-05-21T05:11:57.390Z,78.02
2019-05-21T05:12:57.295Z,78.92
2019-05-21T05:13:57.304Z,77.68
2019-05-21T05:14:57.278Z,77.51
2019-05-21T05:15:57.267Z,77.38
2019-05-21T05:16:57.280Z,76.97
2019-05-21T05:17:57.255Z,77.08
2019-05-21T05:18:57.231Z,76.47
2019-05-21T05:19:57.231Z,77.28
2019-05-21T05:20:57.208Z,77.17
2019-05-21T05:21:57.267Z,76.34
2019-05-21T05:22:57.207Z,76.14
2019-05-21T05:23:57.181Z,76.14
2019-05-21T05:24:57.169Z,76.54
2019-05-21T05:25:57.162Z,76.03
2019-05-21T05:26:57.182Z,75.79
2019-05-21T05:27:57.131Z,75.70
2019-05-21T05:28:57.123Z,76.30
2019-05-21T05:29:57.175Z,75.35
2019-05-21T05:30:57.098Z,75.05
2019-05-21T05:31:57.101Z,74.85
2019-05-21T05:32:57.122Z,73.11
2019-05-21T05:33:57.063Z,74.15
2019-05-21T05:34:57.067Z,73.55
2019-05-21T05:35:57.157Z,73.44
2019-05-21T05:36:57.037Z,73.31
2019-05-21T05:37:57.027Z,73.61
2019-05-21T05:38:57.025Z,73.51
2019-05-21T05:39:56.996Z,72.97
2019-05-21T05:40:57.003Z,72.97
2019-05-21T05:41:57.059Z,72.07
2019-05-21T05:42:57.052Z,71.97
2019-05-21T05:43:56.953Z,70.76
2019-05-21T05:44:56.945Z,71.26
2019-05-21T05:45:56.962Z,71.03
2019-05-21T05:46:56.930Z,70.32
2019-05-21T05:47:56.965Z,70.53
2019-05-21T05:48:56.913Z,69.72
2019-05-21T05:49:56.886Z,68.72
2019-05-21T05:50:56.882Z,69.62
2019-05-21T05:51:56.871Z,69.82
2019-05-21T05:52:56.877Z,70.63
2019-05-21T05:53:56.919Z,69.69
2019-05-21T05:54:56.835Z,69.89
2019-05-21T05:55:56.821Z,70.09
2019-05-21T05:56:56.814Z,69.26
2019-05-21T05:57:56.834Z,68.55
2019-05-21T05:58:56.799Z,69.06
2019-05-21T05:59:56.788Z,67.65
2019-05-21T06:00:56.785Z,68.05
2019-05-21T06:01:56.762Z,67.95
2019-05-21T06:02:56.752Z,66.71
2019-05-21T06:03:56.774Z,67.61
2019-05-21T06:04:56.750Z,67.52
2019-05-21T06:05:56.725Z,66.61
2019-05-21T06:06:56.708Z,66.61
2019-05-21T06:07:59.646Z,66.61
2019-05-21T06:08:56.719Z,66.68
2019-05-21T06:09:56.676Z,66.88
2019-05-21T06:10:56.664Z,66.78
2019-05-21T06:11:56.656Z,66.25
2019-05-21T06:12:56.650Z,65.05
2019-05-21T06:13:56.635Z,65.35
2019-05-21T06:14:56.653Z,64.54
2019-05-21T06:15:56.625Z,64.62
2019-05-21T06:16:56.595Z,64.42
2019-05-21T06:17:56.600Z,64.42
2019-05-21T06:18:56.579Z,64.12
2019-05-21T06:19:56.590Z,64.09
2019-05-21T06:20:56.696Z,63.18
2019-05-21T06:21:56.615Z,64.06
2019-05-21T06:22:56.616Z,63.85
2019-05-21T06:23:56.524Z,63.72
2019-05-21T06:24:56.533Z,62.52
2019-05-21T06:25:56.523Z,62.29
2019-05-21T06:26:56.486Z,61.49
2019-05-21T06:27:56.473Z,61.16
2019-05-21T06:28:56.468Z,60.57
2019-05-21T06:29:56.467Z,60.33
2019-05-21T06:30:56.440Z,60.24
2019-05-21T06:31:56.526Z,59.94
2019-05-21T06:32:56.421Z,60.03
2019-05-21T06:33:56.411Z,58.91
2019-05-21T06:34:56.507Z,58.51
2019-05-21T06:35:56.393Z,57.81
2019-05-21T06:36:56.378Z,58.61
2019-05-21T06:37:56.374Z,58.81
2019-05-21T06:38:56.357Z,57.81
2019-05-21T06:39:56.340Z,57.78
2019-05-21T06:40:56.361Z,57.88
2019-05-21T06:41:56.318Z,59.08
2019-05-21T06:42:56.311Z,57.86
2019-05-21T06:43:56.303Z,57.76
2019-05-21T06:44:56.286Z,57.46
2019-05-21T06:45:56.312Z,57.35
2019-05-21T06:46:56.275Z,56.63
2019-05-21T06:47:56.255Z,56.56
2019-05-21T06:48:56.245Z,57.18
2019-05-21T06:49:56.231Z,58.73
2019-05-21T06:50:56.254Z,60.06
2019-05-21T06:51:56.251Z,59.53
2019-05-21T06:52:56.227Z,57.91
2019-05-21T06:53:56.188Z,57.18
2019-05-21T06:54:56.184Z,56.06
2019-05-21T06:55:56.169Z,54.94
2019-05-21T06:56:56.267Z,54.91
2019-05-21T06:57:56.155Z,55.51
2019-05-21T06:58:56.133Z,55.24
2019-05-21T06:59:56.126Z,55.83
2019-05-21T07:00:56.115Z,55.61
2019-05-21T07:01:56.103Z,55.31
2019-05-21T07:02:56.216Z,55.01
2019-05-21T07:03:56.078Z,55.08
2019-05-21T07:04:56.150Z,54.75
2019-05-21T07:05:58.736Z,54.33
2019-05-21T07:06:56.054Z,54.13
2019-05-21T07:07:56.110Z,54.24
2019-05-21T07:08:56.022Z,54.01
2019-05-21T07:09:56.022Z,54.21
2019-05-21T07:10:56.004Z,53.21
2019-05-21T07:11:56.002Z,53.28
2019-05-21T07:12:56.091Z,53.26
2019-05-21T07:13:56.088Z,51.97
2019-05-21T07:14:55.957Z,50.95
2019-05-21T07:15:55.957Z,50.45
2019-05-21T07:16:55.942Z,50.56
2019-05-21T07:17:55.929Z,50.26
2019-05-21T07:18:55.916Z,49.26
2019-05-21T07:19:55.992Z,49.26
2019-05-21T07:20:55.899Z,48.77
2019-05-21T07:22:11.567Z,49.14
2019-05-21T07:22:56.899Z,48.89
2019-05-21T07:23:55.869Z,51.62
2019-05-21T07:24:55.864Z,52.22
2019-05-21T07:25:55.869Z,51.50
2019-05-21T07:26:55.833Z,51.52
2019-05-21T07:27:55.859Z,51.52
2019-05-21T07:28:56.489Z,52.47
2019-05-21T07:29:55.803Z,53.84
2019-05-21T07:30:55.901Z,55.06
2019-05-21T07:31:55.785Z,55.04
2019-05-21T07:32:55.782Z,54.81
2019-05-21T07:33:55.761Z,53.99
2019-05-21T07:34:55.748Z,52.74
2019-05-21T07:35:55.736Z,52.72
2019-05-21T07:36:55.807Z,51.87
2019-05-21T07:37:55.727Z,51.05
2019-05-21T07:38:55.711Z,50.03
2019-05-21T07:39:55.759Z,48.62
2019-05-21T07:40:55.679Z,48.82
2019-05-21T07:41:55.673Z,46.04
2019-05-21T07:42:55.661Z,47.35
2019-05-21T07:43:55.659Z,48.27
2019-05-21T07:44:55.697Z,48.61
2019-05-21T07:45:55.668Z,50.90
2019-05-21T07:46:55.617Z,50.20
2019-05-21T07:47:55.609Z,50.88
2019-05-21T07:48:55.679Z,48.99
2019-05-21T07:49:55.589Z,49.04
2019-05-21T07:50:55.582Z,50.23
2019-05-21T07:51:55.578Z,52.00
2019-05-21T07:52:55.553Z,52.97
2019-05-21T07:53:55.535Z,52.09
2019-05-21T07:54:55.611Z,52.34
2019-05-21T07:55:55.519Z,50.73
2019-05-21T07:56:55.509Z,49.91
2019-05-21T07:57:55.519Z,49.88
2019-05-21T07:58:55.485Z,48.77
2019-05-21T07:59:55.556Z,47.75
2019-05-21T08:00:55.470Z,47.33
2019-05-21T08:01:55.453Z,47.50
2019-05-21T08:02:55.454Z,46.30
2019-05-21T08:03:55.436Z,45.90
2019-05-21T08:04:55.436Z,46.27
2019-05-21T08:05:55.492Z,45.85
2019-05-21T08:06:55.408Z,45.93
2019-05-21T08:07:55.428Z,45.43
2019-05-21T08:09:11.746Z,44.92
2019-05-21T08:09:56.360Z,45.51
2019-05-21T08:10:55.435Z,45.51
2019-05-21T08:11:55.348Z,44.82
2019-05-21T08:12:55.345Z,44.82
2019-05-21T08:13:55.326Z,45.12
2019-05-21T08:14:55.309Z,45.61
2019-05-21T08:15:55.339Z,45.12
2019-05-21T08:16:55.297Z,44.40
2019-05-21T08:17:55.283Z,44.38
2019-05-21T08:18:55.278Z,44.26
2019-05-21T08:19:55.263Z,42.50
2019-05-21T08:20:55.248Z,42.99
2019-05-21T08:21:55.291Z,41.79
2019-05-21T08:22:55.224Z,41.30
2019-05-21T08:23:55.218Z,42.01
2019-05-21T08:24:55.209Z,42.29
2019-05-21T08:25:55.194Z,42.97
2019-05-21T08:26:55.229Z,42.78
2019-05-21T08:27:55.299Z,41.85
2019-05-21T08:28:55.161Z,41.55
2019-05-21T08:29:55.148Z,40.94
2019-05-21T08:30:55.218Z,41.22
2019-05-21T08:31:55.126Z,42.13
2019-05-21T08:32:55.228Z,42.52
2019-05-21T08:33:55.105Z,40.94
2019-05-21T08:34:55.095Z,40.62
2019-05-21T08:35:55.105Z,40.80
2019-05-21T08:36:55.083Z,40.58
2019-05-21T08:37:55.079Z,40.88
2019-05-21T08:38:55.135Z,41.08
2019-05-21T08:39:55.045Z,41.36
2019-05-21T08:40:55.038Z,40.76
2019-05-21T08:41:55.027Z,39.95
2019-05-21T08:42:55.022Z,39.76
2019-05-21T08:43:55.011Z,39.97
2019-05-21T08:44:55.046Z,40.47
2019-05-21T08:45:54.984Z,39.95
2019-05-21T08:46:54.972Z,39.44
2019-05-21T08:47:54.969Z,39.72
2019-05-21T08:48:54.952Z,38.91
2019-05-21T08:49:54.941Z,38.79
2019-05-21T08:50:55.012Z,38.54
2019-05-21T08:51:54.920Z,39.54
2019-05-21T08:52:54.905Z,39.62
2019-05-21T08:53:54.902Z,38.93
2019-05-21T08:54:56.404Z,38.91
2019-05-21T08:55:54.959Z,37.12
2019-05-21T08:56:54.866Z,37.69
2019-05-21T08:58:06.317Z,37.30
2019-05-21T08:58:55.850Z,36.80
2019-05-21T08:59:54.846Z,36.69
2019-05-21T09:00:54.910Z,36.28
2019-05-21T09:01:58.821Z,35.67
2019-05-21T09:02:54.810Z,36.15
2019-05-21T09:03:54.799Z,35.20
2019-05-21T09:04:54.785Z,35.92
2019-05-21T09:05:54.868Z,37.10
2019-05-21T09:06:54.767Z,36.90
2019-05-21T09:07:54.764Z,37.12
2019-05-21T09:08:54.757Z,36.96
2019-05-21T09:09:54.743Z,37.87
2019-05-21T09:10:55.013Z,37.34
2019-05-21T09:11:54.732Z,35.35
2019-05-21T09:12:54.720Z,34.25
2019-05-21T09:13:54.712Z,35.43
2019-05-21T09:14:54.726Z,35.80
2019-05-21T09:15:54.731Z,35.74
2019-05-21T09:16:54.672Z,38.81
2019-05-21T09:17:54.659Z,39.09
2019-05-21T09:18:54.656Z,38.79
2019-05-21T09:19:54.673Z,38.18
2019-05-21T09:20:54.716Z,38.87
2019-05-21T09:21:54.706Z,37.87
2019-05-21T09:22:54.680Z,37.53
2019-05-21T09:23:54.626Z,36.90
2019-05-21T09:24:54.603Z,36.00
2019-05-21T09:25:54.585Z,35.84
2019-05-21T09:26:54.664Z,37.59
2019-05-21T09:27:54.566Z,38.18
2019-05-21T09:28:54.561Z,37.17
2019-05-21T09:29:54.558Z,37.63
2019-05-21T09:30:54.539Z,35.63
2019-05-21T09:31:54.563Z,34.33
2019-05-21T09:32:54.632Z,35.11
2019-05-21T09:33:54.517Z,34.51
2019-05-21T09:34:54.500Z,34.51
2019-05-21T09:35:54.496Z,34.01
2019-05-21T09:36:54.485Z,33.82
2019-05-21T09:37:54.493Z,35.07
2019-05-21T09:38:54.551Z,34.97
2019-05-21T09:39:54.461Z,35.56
2019-05-21T09:40:54.449Z,34.46
2019-05-21T09:41:54.435Z,33.94
2019-05-21T09:42:54.513Z,34.64
2019-05-21T09:43:54.422Z,34.22
2019-05-21T09:44:54.408Z,33.70
2019-05-21T09:45:54.404Z,33.79
2019-05-21T09:46:54.417Z,33.00
2019-05-21T09:47:54.456Z,33.58
2019-05-21T09:48:56.214Z,32.87
2019-05-21T09:49:54.366Z,32.35
2019-05-21T09:50:54.361Z,31.86
2019-05-21T09:51:54.353Z,32.15
2019-05-21T09:52:54.352Z,32.04
2019-05-21T09:53:54.335Z,30.74
2019-05-21T09:54:54.318Z,30.02
2019-05-21T09:55:54.309Z,29.49
2019-05-21T09:56:54.300Z,28.79
2019-05-21T09:57:54.400Z,28.67
2019-05-21T09:58:54.292Z,29.06
2019-05-21T09:59:54.278Z,30.57
2019-05-21T10:00:54.265Z,30.10
2019-05-21T10:01:54.250Z,31.50
2019-05-21T10:02:54.243Z,32.27
2019-05-21T10:03:54.343Z,30.94
2019-05-21T10:04:54.227Z,30.64
2019-05-21T10:05:54.219Z,31.27
2019-05-21T10:06:54.215Z,31.55
2019-05-21T10:07:54.204Z,30.65
2019-05-21T10:08:54.206Z,30.74
2019-05-21T10:09:54.179Z,28.96
2019-05-21T10:10:54.202Z,28.54
2019-05-21T10:11:54.161Z,28.53
2019-05-21T10:12:54.237Z,29.14
2019-05-21T10:13:54.143Z,30.35
2019-05-21T10:14:54.216Z,29.97
2019-05-21T10:15:54.133Z,31.70
2019-05-21T10:16:54.119Z,32.28
2019-05-21T10:17:54.106Z,31.68
2019-05-21T10:18:54.100Z,32.51
2019-05-21T10:19:54.199Z,33.86
2019-05-21T10:20:54.084Z,36.21
2019-05-21T10:21:56.908Z,37.24
2019-05-21T10:22:54.063Z,39.37
2019-05-21T10:23:54.051Z,39.79
2019-05-21T10:24:54.051Z,39.61
2019-05-21T10:25:54.116Z,40.41
2019-05-21T10:26:54.026Z,40.60
2019-05-21T10:27:54.010Z,40.20
2019-05-21T10:28:54.004Z,39.91
2019-05-21T10:29:54.006Z,40.20
2019-05-21T10:30:53.984Z,40.68
2019-05-21T10:31:54.053Z,38.47
2019-05-21T10:32:53.962Z,37.21
2019-05-21T10:33:53.949Z,35.99
2019-05-21T10:34:53.940Z,35.05
2019-05-21T10:35:53.935Z,35.13
2019-05-21T10:36:53.923Z,34.74
2019-05-21T10:37:55.354Z,35.46
2019-05-21T10:38:53.896Z,36.27
2019-05-21T10:39:53.898Z,37.30
2019-05-21T10:40:53.972Z,37.72
2019-05-21T10:41:53.871Z,38.55
2019-05-21T10:42:53.871Z,39.75
2019-05-21T10:43:53.851Z,40.07
2019-05-21T10:44:53.839Z,40.07
2019-05-21T10:45:53.977Z,40.98
2019-05-21T10:46:53.820Z,40.09
2019-05-21T10:47:53.810Z,40.15
2019-05-21T10:48:53.797Z,39.12
2019-05-21T10:49:53.795Z,37.30
2019-05-21T10:50:53.777Z,37.80
2019-05-21T10:51:53.849Z,38.06
2019-05-21T10:52:53.753Z,39.58
2019-05-21T10:53:53.769Z,40.86
2019-05-21T10:54:53.731Z,41.08
2019-05-21T10:55:53.737Z,40.98
2019-05-21T10:56:53.712Z,40.31
2019-05-21T10:57:53.719Z,39.58
2019-05-21T10:58:53.691Z,37.07
2019-05-21T10:59:53.680Z,37.32
2019-05-21T11:00:53.705Z,35.73
2019-05-21T11:01:53.716Z,35.61
2019-05-21T11:02:53.735Z,35.79
2019-05-21T11:03:53.640Z,35.58
2019-05-21T11:04:53.634Z,34.30
2019-05-21T11:06:09.122Z,35.56
2019-05-21T11:06:54.611Z,34.66
2019-05-21T11:07:53.685Z,34.15
2019-05-21T11:08:53.675Z,34.15
2019-05-21T11:09:53.583Z,34.23
2019-05-21T11:10:53.574Z,33.64
2019-05-21T11:11:53.567Z,33.62
2019-05-21T11:12:53.558Z,34.23
2019-05-21T11:13:53.675Z,34.33
2019-05-21T11:14:53.533Z,34.51
2019-05-21T11:15:53.523Z,34.53
2019-05-21T11:16:53.514Z,33.94
2019-05-21T11:18:09.129Z,34.84
2019-05-21T11:18:54.575Z,35.68
2019-05-21T11:19:53.486Z,37.54
2019-05-21T11:20:53.476Z,38.37
2019-05-21T11:21:53.464Z,39.08
2019-05-21T11:22:53.446Z,39.87
2019-05-21T11:23:53.552Z,39.40
2019-05-21T11:24:53.484Z,39.69
2019-05-21T11:25:53.535Z,38.88
2019-05-21T11:26:53.405Z,39.48
2019-05-21T11:27:53.396Z,38.67
2019-05-21T11:28:53.471Z,37.45
2019-05-21T11:29:53.375Z,37.52
2019-05-21T11:30:53.378Z,37.60
2019-05-21T11:31:57.405Z,37.30
2019-05-21T11:32:53.340Z,36.50
2019-05-21T11:33:53.442Z,35.50
2019-05-21T11:34:53.321Z,35.48
2019-05-21T11:35:53.352Z,35.58
2019-05-21T11:36:53.312Z,35.17
2019-05-21T11:37:53.295Z,35.46
2019-05-21T11:38:53.280Z,35.46
2019-05-21T11:39:53.267Z,34.56
2019-05-21T11:40:53.261Z,35.15
2019-05-21T11:41:53.330Z,36.17
2019-05-21T11:42:53.462Z,36.80
2019-05-21T11:43:53.230Z,37.98
2019-05-21T11:44:53.213Z,37.60
2019-05-21T11:45:53.286Z,38.31
2019-05-21T11:46:53.275Z,38.92
2019-05-21T11:47:54.708Z,38.82
2019-05-21T11:48:53.174Z,38.73
2019-05-21T11:49:53.166Z,37.56
2019-05-21T11:50:53.157Z,38.15
2019-05-21T11:51:53.144Z,38.96
2019-05-21T11:52:53.216Z,39.65
2019-05-21T11:53:53.128Z,39.87
2019-05-21T11:54:55.889Z,39.58
2019-05-21T11:55:53.101Z,40.37
2019-05-21T11:56:53.096Z,40.19
2019-05-21T11:57:53.081Z,41.47
2019-05-21T11:58:53.128Z,41.79
2019-05-21T11:59:53.169Z,42.09
2019-05-21T12:00:53.049Z,41.39
2019-05-21T12:01:53.033Z,41.49
2019-05-21T12:02:53.080Z,41.60
2019-05-21T12:03:53.011Z,40.70
2019-05-21T12:04:53.019Z,41.20
2019-05-21T12:05:53.096Z,41.89
2019-05-21T12:06:53.018Z,41.00
2019-05-21T12:07:52.978Z,41.00
2019-05-21T12:08:56.954Z,41.00
2019-05-21T12:09:52.952Z,41.00
2019-05-21T12:10:53.027Z,41.28
2019-05-21T12:11:52.932Z,40.80
2019-05-21T12:12:52.916Z,41.91
2019-05-21T12:13:52.908Z,42.11
2019-05-21T12:14:52.902Z,42.11
2019-05-21T12:15:52.893Z,41.91
2019-05-21T12:16:52.965Z,42.11
2019-05-21T12:17:52.862Z,41.99
2019-05-21T12:18:52.937Z,42.29
2019-05-21T12:19:52.888Z,41.99
2019-05-21T12:20:52.829Z,42.09
2019-05-21T12:21:52.822Z,42.58
2019-05-21T12:22:52.849Z,41.79
2019-05-21T12:23:52.995Z,42.11
2019-05-21T12:24:52.801Z,41.22
2019-05-21T12:25:52.778Z,42.13
2019-05-21T12:26:52.768Z,42.13
2019-05-21T12:27:52.758Z,42.03
2019-05-21T12:28:52.827Z,42.23
2019-05-21T12:29:52.742Z,42.33
2019-05-21T12:30:52.728Z,41.22
2019-05-21T12:31:52.710Z,40.70
2019-05-21T12:32:52.698Z,40.07
2019-05-21T12:33:52.776Z,40.05
2019-05-21T12:34:52.763Z,38.75
2019-05-21T12:35:52.671Z,40.13
2019-05-21T12:36:52.687Z,39.46
2019-05-21T12:37:52.649Z,39.77
2019-05-21T12:38:52.647Z,41.20
2019-05-21T12:39:52.623Z,41.20
2019-05-21T12:40:52.621Z,41.89
2019-05-21T12:41:52.612Z,42.41
2019-05-21T12:42:52.598Z,42.92
2019-05-21T12:43:52.692Z,42.74
2019-05-21T12:44:52.569Z,43.62
2019-05-21T12:45:52.559Z,43.52
2019-05-21T12:46:52.555Z,43.34
2019-05-21T12:47:52.545Z,42.74
2019-05-21T12:48:52.542Z,43.12
2019-05-21T12:49:52.602Z,42.52
2019-05-21T12:50:52.587Z,43.12
2019-05-21T12:51:52.579Z,42.72